createdAt,value
2023-05-18T00:02:05.938Z,7.27
2023-05-18T00:04:34.615Z,7.23
2023-05-18T00:07:05.894Z,7.21
2023-05-18T00:09:34.933Z,7.18
2023-05-18T00:12:02.921Z,7.13
2023-05-18T00:14:30.046Z,7.10
2023-05-18T00:16:57.961Z,7.07
2023-05-18T00:19:25.231Z,7.03
2023-05-18T00:21:52.648Z,7.03
2023-05-18T00:24:19.550Z,7.01
2023-05-18T00:26:47.638Z,6.98
2023-05-18T00:29:14.136Z,6.96
2023-05-18T00:31:42.077Z,6.90
2023-05-18T00:34:09.612Z,6.88
2023-05-18T00:36:37.205Z,6.85
2023-05-18T00:39:05.167Z,6.85
2023-05-18T00:41:32.830Z,6.81
2023-05-18T00:44:00.510Z,6.78
2023-05-18T00:46:28.174Z,6.77
2023-05-18T00:48:57.165Z,6.72
2023-05-18T00:51:24.749Z,6.72
2023-05-18T00:53:52.756Z,6.68
2023-05-18T00:56:20.179Z,6.67
2023-05-18T00:58:48.084Z,6.66
2023-05-18T01:01:17.727Z,6.63
2023-05-18T01:03:44.509Z,6.59
2023-05-18T01:06:12.921Z,6.54
2023-05-18T01:08:41.628Z,6.52
2023-05-18T01:11:26.836Z,6.49
2023-05-18T01:14:06.054Z,6.44
2023-05-18T01:16:43.593Z,6.44
2023-05-18T01:19:51.422Z,6.42
2023-05-18T01:22:33.183Z,6.42
2023-05-18T01:25:04.765Z,6.39
2023-05-18T01:27:37.439Z,6.36
2023-05-18T01:30:05.415Z,6.35
2023-05-18T01:32:40.259Z,6.28
2023-05-18T01:35:07.071Z,6.26
2023-05-18T01:37:33.611Z,6.23
2023-05-18T01:40:00.555Z,6.21
2023-05-18T01:42:30.386Z,6.20
2023-05-18T01:45:07.307Z,6.19
2023-05-18T01:47:38.107Z,6.19
2023-05-18T01:50:15.040Z,6.17
2023-05-18T01:52:51.664Z,6.13
2023-05-18T01:55:19.305Z,6.12
2023-05-18T01:57:48.548Z,6.11
2023-05-18T02:00:19.246Z,6.10
2023-05-18T02:02:48.319Z,6.09
2023-05-18T02:05:17.557Z,6.09
2023-05-18T02:07:47.244Z,6.06
2023-05-18T02:10:14.212Z,6.06
2023-05-18T02:12:41.036Z,6.05
2023-05-18T02:15:09.405Z,6.03
2023-05-18T02:17:39.550Z,6.02
2023-05-18T02:20:07.374Z,6.03
2023-05-18T02:22:34.734Z,6.02
2023-05-18T02:25:02.431Z,6.01
2023-05-18T02:27:28.916Z,5.97
2023-05-18T02:29:55.451Z,5.94
2023-05-18T02:32:23.700Z,5.91
2023-05-18T02:34:53.846Z,5.89
2023-05-18T02:37:23.119Z,5.87
2023-05-18T02:39:51.095Z,5.83
2023-05-18T02:42:17.571Z,5.82
2023-05-18T02:44:44.153Z,5.76
2023-05-18T02:47:14.004Z,5.71
2023-05-18T02:49:40.577Z,5.69
2023-05-18T02:52:07.178Z,5.65
2023-05-18T02:54:33.804Z,5.65
2023-05-18T02:57:01.411Z,5.61
2023-05-18T02:59:44.077Z,5.61
2023-05-18T03:02:14.240Z,5.55
2023-05-18T03:04:41.710Z,5.55
2023-05-18T03:07:08.343Z,5.54
2023-05-18T03:09:34.832Z,5.51
2023-05-18T03:12:02.208Z,5.45
2023-05-18T03:14:28.835Z,5.39
2023-05-18T03:16:57.761Z,5.38
2023-05-18T03:19:27.425Z,5.38
2023-05-18T03:21:54.273Z,5.38
2023-05-18T03:24:21.496Z,5.39
2023-05-18T03:26:49.510Z,5.37
2023-05-18T03:29:16.068Z,5.33
2023-05-18T03:31:43.062Z,5.28
2023-05-18T03:34:11.092Z,5.24
2023-05-18T03:36:38.408Z,5.24
2023-05-18T03:39:06.543Z,5.20
2023-05-18T03:41:33.304Z,5.18
2023-05-18T03:43:59.861Z,5.17
2023-05-18T03:46:27.574Z,5.18
2023-05-18T03:48:54.592Z,5.18
2023-05-18T03:51:29.108Z,5.20
2023-05-18T03:53:56.008Z,5.18
2023-05-18T03:56:23.158Z,5.19
2023-05-18T03:58:51.388Z,5.19
2023-05-18T04:01:18.918Z,5.21
2023-05-18T04:03:45.775Z,5.19
2023-05-18T04:06:12.592Z,5.16
2023-05-18T04:08:40.382Z,5.14
2023-05-18T04:11:06.921Z,5.13
2023-05-18T04:13:33.480Z,5.11
2023-05-18T04:16:00.142Z,5.14
2023-05-18T04:18:30.782Z,5.13
2023-05-18T04:20:57.320Z,5.15
2023-05-18T04:23:24.107Z,5.18
2023-05-18T04:25:50.710Z,5.16
2023-05-18T04:28:17.598Z,5.14
2023-05-18T04:30:44.264Z,5.13
2023-05-18T04:33:10.859Z,5.15
2023-05-18T04:35:37.896Z,5.19
2023-05-18T04:38:05.298Z,5.21
2023-05-18T04:40:33.989Z,5.20
2023-05-18T04:43:01.020Z,5.24
2023-05-18T04:45:30.093Z,5.26
2023-05-18T04:47:58.561Z,5.32
2023-05-18T04:50:25.171Z,5.36
2023-05-18T04:52:53.758Z,5.39
2023-05-18T04:55:31.009Z,5.45
2023-05-18T04:58:03.174Z,5.47
2023-05-18T05:00:30.706Z,5.51
2023-05-18T05:03:00.503Z,5.56
2023-05-18T05:05:27.532Z,5.60
2023-05-18T05:07:55.538Z,5.70
2023-05-18T05:10:22.225Z,5.82
2023-05-18T05:12:50.028Z,6.01
2023-05-18T05:15:17.217Z,6.56
2023-05-18T05:17:44.043Z,6.96
2023-05-18T05:20:11.011Z,7.02
2023-05-18T05:22:38.240Z,7.04
2023-05-18T05:25:08.536Z,7.04
2023-05-18T05:27:35.141Z,7.06
2023-05-18T05:30:02.594Z,7.12
2023-05-18T05:32:30.863Z,7.40
2023-05-18T05:34:57.532Z,7.59
2023-05-18T05:37:24.881Z,7.55
2023-05-18T05:39:51.730Z,7.41
2023-05-18T05:42:18.469Z,7.40
2023-05-18T05:44:45.279Z,7.39
2023-05-18T05:47:11.901Z,7.33
2023-05-18T05:49:38.650Z,7.41
2023-05-18T05:52:06.752Z,7.47
2023-05-18T05:54:33.433Z,7.46
2023-05-18T05:57:00.138Z,7.51
2023-05-18T05:59:26.932Z,7.55
2023-05-18T06:01:53.786Z,7.59
2023-05-18T06:04:22.211Z,7.64
2023-05-18T06:06:49.518Z,7.71
2023-05-18T06:09:16.763Z,7.87
2023-05-18T06:11:43.390Z,8.14
2023-05-18T06:14:10.065Z,8.75
2023-05-18T06:16:36.829Z,9.47
2023-05-18T06:19:03.517Z,10.25
2023-05-18T06:21:31.543Z,10.99
2023-05-18T06:23:59.483Z,10.93
2023-05-18T06:26:46.256Z,10.59
2023-05-18T06:29:35.344Z,10.63
2023-05-18T06:32:17.924Z,10.96
2023-05-18T06:34:52.732Z,11.16
2023-05-18T06:37:21.019Z,11.33
2023-05-18T06:39:47.514Z,11.48
2023-05-18T06:42:13.998Z,11.24
2023-05-18T06:44:53.720Z,11.53
2023-05-18T06:47:31.106Z,11.56
2023-05-18T06:50:00.416Z,11.88
2023-05-18T06:52:27.222Z,12.44
2023-05-18T06:54:54.115Z,12.92
2023-05-18T06:57:20.845Z,12.98
2023-05-18T06:59:53.446Z,12.88
2023-05-18T07:02:21.237Z,12.82
2023-05-18T07:04:52.069Z,13.18
2023-05-18T07:07:18.778Z,13.32
2023-05-18T07:09:45.701Z,13.31
2023-05-18T07:12:12.790Z,13.50
2023-05-18T07:14:39.337Z,13.42
2023-05-18T07:17:07.064Z,13.18
2023-05-18T07:19:35.212Z,13.20
2023-05-18T07:22:01.883Z,12.81
2023-05-18T07:24:28.417Z,12.67
2023-05-18T07:26:54.912Z,12.69
2023-05-18T07:29:21.567Z,12.54
2023-05-18T07:31:48.166Z,12.26
2023-05-18T07:34:14.806Z,12.23
2023-05-18T07:36:41.532Z,12.26
2023-05-18T07:39:08.658Z,12.44
2023-05-18T07:41:36.095Z,12.52
2023-05-18T07:44:02.866Z,12.62
2023-05-18T07:46:29.534Z,12.60
2023-05-18T07:48:56.066Z,12.37
2023-05-18T07:51:22.777Z,12.28
2023-05-18T07:53:49.488Z,12.18
2023-05-18T07:56:16.002Z,12.15
2023-05-18T07:58:42.541Z,12.14
2023-05-18T08:01:09.062Z,12.17
2023-05-18T08:03:36.099Z,12.04
2023-05-18T08:06:03.061Z,12.01
2023-05-18T08:08:29.640Z,12.07
2023-05-18T08:10:57.271Z,12.13
2023-05-18T08:13:23.775Z,12.09
2023-05-18T08:15:59.309Z,12.31
2023-05-18T08:18:36.720Z,12.54
2023-05-18T08:21:04.235Z,12.50
2023-05-18T08:23:31.173Z,12.60
2023-05-18T08:26:00.087Z,12.79
2023-05-18T08:28:27.221Z,12.68
2023-05-18T08:30:53.890Z,12.72
2023-05-18T08:33:21.052Z,12.83
2023-05-18T08:35:47.610Z,12.94
2023-05-18T08:38:14.154Z,13.70
2023-05-18T08:41:05.372Z,14.32
2023-05-18T08:43:34.590Z,14.49
2023-05-18T08:46:17.812Z,14.64
2023-05-18T08:48:46.831Z,14.72
2023-05-18T08:51:20.069Z,14.61
2023-05-18T08:53:52.693Z,14.52
2023-05-18T08:56:26.631Z,14.46
2023-05-18T08:58:56.602Z,14.60
2023-05-18T09:01:29.803Z,14.81
2023-05-18T09:03:58.041Z,14.94
2023-05-18T09:06:25.281Z,15.01
2023-05-18T09:08:53.443Z,14.79
2023-05-18T09:11:21.576Z,14.71
2023-05-18T09:13:50.899Z,14.79
2023-05-18T09:16:18.400Z,14.68
2023-05-18T09:18:45.384Z,14.69
2023-05-18T09:21:12.224Z,14.67
2023-05-18T09:23:40.878Z,14.90
2023-05-18T09:26:10.142Z,15.16
2023-05-18T09:28:38.972Z,15.08
2023-05-18T09:31:08.802Z,15.11
2023-05-18T09:33:37.480Z,15.25
2023-05-18T09:36:08.893Z,15.45
2023-05-18T09:38:40.565Z,15.45
2023-05-18T09:41:12.422Z,15.67
2023-05-18T09:43:39.886Z,15.83
2023-05-18T09:46:10.981Z,15.87
2023-05-18T09:48:43.705Z,16.14
2023-05-18T09:51:16.406Z,16.15
2023-05-18T09:53:48.091Z,16.01
2023-05-18T09:56:17.592Z,15.87
2023-05-18T09:58:45.879Z,16.02
2023-05-18T10:01:14.005Z,16.51
2023-05-18T10:03:40.801Z,16.81
2023-05-18T10:06:09.699Z,16.64
2023-05-18T10:08:37.328Z,16.54
2023-05-18T10:11:04.163Z,16.62
2023-05-18T10:13:32.126Z,16.47
2023-05-18T10:16:04.765Z,16.30
2023-05-18T10:18:37.608Z,16.38
2023-05-18T10:21:07.622Z,16.83
2023-05-18T10:23:35.642Z,16.63
2023-05-18T10:26:05.969Z,16.54
2023-05-18T10:28:44.125Z,16.77
2023-05-18T10:31:11.341Z,17.09
2023-05-18T10:33:38.255Z,17.10
2023-05-18T10:36:05.837Z,17.21
2023-05-18T10:38:34.236Z,17.48
2023-05-18T10:41:01.532Z,17.19
2023-05-18T10:43:28.760Z,17.28
2023-05-18T10:45:57.596Z,17.47
2023-05-18T10:48:25.645Z,17.81
2023-05-18T10:50:55.212Z,17.83
2023-05-18T10:53:22.778Z,17.91
2023-05-18T10:55:50.816Z,17.95
2023-05-18T10:58:20.752Z,18.04
2023-05-18T11:00:54.714Z,18.31
2023-05-18T11:03:22.292Z,18.07
2023-05-18T11:05:52.237Z,17.77
2023-05-18T11:08:28.646Z,17.99
2023-05-18T11:11:07.489Z,18.25
2023-05-18T11:13:36.065Z,18.25
2023-05-18T11:16:05.256Z,18.23
2023-05-18T11:18:46.561Z,18.59
2023-05-18T11:21:51.566Z,18.69
2023-05-18T11:24:24.052Z,18.79
2023-05-18T11:26:56.235Z,18.55
2023-05-18T11:29:33.982Z,18.73
2023-05-18T11:32:05.071Z,19.02
2023-05-18T11:34:46.244Z,18.58
2023-05-18T11:37:17.480Z,18.57
2023-05-18T11:39:59.708Z,18.56
2023-05-18T11:42:35.080Z,18.52
2023-05-18T11:45:17.429Z,18.52
2023-05-18T11:47:44.186Z,18.53
2023-05-18T11:50:14.806Z,18.44
2023-05-18T11:52:49.174Z,18.22
2023-05-18T11:55:19.445Z,18.16
2023-05-18T11:57:49.817Z,18.27
2023-05-18T12:00:17.236Z,18.08
2023-05-18T12:02:46.282Z,18.10
2023-05-18T12:05:13.822Z,17.66
2023-05-18T12:07:41.382Z,17.79
2023-05-18T12:10:12.948Z,18.02
2023-05-18T12:12:41.023Z,18.43
2023-05-18T12:15:09.521Z,18.47
2023-05-18T12:17:40.775Z,18.24
2023-05-18T12:20:13.411Z,18.09
2023-05-18T12:22:41.447Z,18.19
2023-05-18T12:25:08.773Z,18.40
2023-05-18T12:27:40.262Z,18.26
2023-05-18T12:30:20.601Z,18.15
2023-05-18T12:32:50.909Z,18.17
2023-05-18T12:35:21.484Z,18.22
2023-05-18T12:37:48.053Z,18.50
2023-05-18T12:40:16.805Z,18.60
2023-05-18T12:43:01.198Z,18.52
2023-05-18T12:45:31.645Z,18.34
2023-05-18T12:48:05.870Z,18.11
2023-05-18T12:50:32.624Z,18.20
2023-05-18T12:53:01.796Z,18.16
2023-05-18T12:55:30.949Z,18.34
2023-05-18T12:58:04.724Z,18.32
2023-05-18T13:00:36.222Z,18.37
2023-05-18T13:03:14.804Z,18.31
2023-05-18T13:05:47.089Z,18.19
2023-05-18T13:08:17.164Z,18.38
2023-05-18T13:10:45.086Z,18.25
2023-05-18T13:13:16.813Z,18.35
2023-05-18T13:15:44.465Z,18.30
2023-05-18T13:18:12.855Z,18.25
2023-05-18T13:20:58.859Z,18.10
2023-05-18T13:23:29.404Z,17.94
2023-05-18T13:25:58.511Z,18.06
2023-05-18T13:28:29.112Z,18.15
2023-05-18T13:30:57.015Z,17.89
2023-05-18T13:33:23.928Z,17.95
2023-05-18T13:35:51.010Z,17.95
2023-05-18T13:38:17.574Z,18.05
2023-05-18T13:43:31.349Z,18.11
2023-05-18T13:45:58.620Z,17.98
2023-05-18T13:48:28.546Z,17.87
2023-05-18T13:50:55.908Z,17.98
2023-05-18T13:53:23.304Z,17.87
2023-05-18T13:55:50.725Z,17.70
2023-05-18T13:58:18.045Z,17.59
2023-05-18T14:00:44.598Z,17.68
2023-05-18T14:03:11.346Z,17.74
2023-05-18T14:05:37.977Z,17.68
2023-05-18T14:08:04.751Z,17.68
2023-05-18T14:10:32.326Z,17.79
2023-05-18T14:12:59.032Z,17.75
2023-05-18T14:15:25.505Z,17.88
2023-05-18T14:17:52.015Z,17.99
2023-05-18T14:20:19.788Z,17.89
2023-05-18T14:22:46.439Z,17.69
2023-05-18T14:25:13.000Z,17.64
2023-05-18T14:27:39.575Z,17.56
2023-05-18T14:30:07.022Z,17.46
2023-05-18T14:32:33.534Z,17.46
2023-05-18T14:35:00.821Z,17.40
2023-05-18T14:37:30.347Z,17.30
2023-05-18T14:40:11.269Z,17.12
2023-05-18T14:42:37.912Z,17.16
2023-05-18T14:45:05.014Z,17.11
2023-05-18T14:47:31.540Z,17.17
2023-05-18T14:49:58.090Z,17.38
2023-05-18T14:52:25.066Z,17.08
2023-05-18T14:54:51.575Z,17.11
2023-05-18T14:57:18.094Z,17.11
2023-05-18T14:59:44.676Z,16.91
2023-05-18T15:02:11.269Z,16.91
2023-05-18T15:04:40.843Z,16.95
2023-05-18T15:07:08.039Z,16.87
2023-05-18T15:09:34.577Z,16.94
2023-05-18T15:12:01.017Z,16.97
2023-05-18T15:14:27.568Z,16.87
2023-05-18T15:16:54.044Z,16.89
2023-05-18T15:19:21.337Z,17.01
2023-05-18T15:21:49.566Z,16.94
2023-05-18T15:24:16.149Z,16.71
2023-05-18T15:26:42.944Z,16.79
2023-05-18T15:29:09.605Z,16.94
2023-05-18T15:31:39.553Z,16.88
2023-05-18T15:34:06.782Z,16.70
2023-05-18T15:36:34.005Z,16.65
2023-05-18T15:39:02.117Z,16.66
2023-05-18T15:41:33.642Z,16.70
2023-05-18T15:44:01.746Z,16.70
2023-05-18T15:46:33.105Z,16.59
2023-05-18T15:48:59.859Z,16.62
2023-05-18T15:51:26.425Z,16.67
2023-05-18T15:53:53.624Z,16.65
2023-05-18T15:56:20.152Z,16.63
2023-05-18T15:58:48.781Z,16.60
2023-05-18T16:01:15.446Z,16.57
2023-05-18T16:03:42.672Z,16.47
2023-05-18T16:06:11.737Z,16.48
2023-05-18T16:08:38.154Z,16.45
2023-05-18T16:11:06.870Z,16.29
2023-05-18T16:13:33.406Z,16.25
2023-05-18T16:16:00.202Z,16.29
2023-05-18T16:18:26.906Z,16.32
2023-05-18T16:20:53.591Z,16.26
2023-05-18T16:23:20.091Z,16.21
2023-05-18T16:25:46.717Z,16.26
2023-05-18T16:28:13.569Z,16.34
2023-05-18T16:30:40.269Z,16.51
2023-05-18T16:33:06.797Z,16.50
2023-05-18T16:35:33.510Z,16.40
2023-05-18T16:38:00.172Z,16.35
2023-05-18T16:40:27.020Z,16.44
2023-05-18T16:42:53.667Z,16.35
2023-05-18T16:45:20.202Z,16.21
2023-05-18T16:47:46.798Z,16.19
2023-05-18T16:50:13.669Z,16.23
2023-05-18T16:52:41.703Z,16.26
2023-05-18T16:55:08.555Z,16.27
2023-05-18T16:57:35.132Z,16.13
2023-05-18T17:00:01.612Z,15.96
2023-05-18T17:02:28.545Z,15.95
2023-05-18T17:04:55.805Z,15.89
2023-05-18T17:07:22.824Z,15.81
2023-05-18T17:09:51.426Z,15.83
2023-05-18T17:12:17.970Z,15.77
2023-05-18T17:14:44.533Z,15.75
2023-05-18T17:17:11.276Z,15.70
2023-05-18T17:19:39.287Z,15.68
2023-05-18T17:22:06.312Z,15.65
2023-05-18T17:24:32.841Z,15.59
2023-05-18T17:26:59.748Z,15.59
2023-05-18T17:29:27.020Z,15.60
2023-05-18T17:31:53.789Z,15.61
2023-05-18T17:34:20.581Z,15.59
2023-05-18T17:36:47.197Z,15.59
2023-05-18T17:39:16.307Z,15.55
2023-05-18T17:41:43.860Z,15.58
2023-05-18T17:44:14.020Z,15.57
2023-05-18T17:46:41.122Z,15.55
2023-05-18T17:49:07.810Z,15.55
2023-05-18T17:51:34.322Z,15.55
2023-05-18T17:54:01.043Z,15.57
2023-05-18T17:56:28.178Z,15.58
2023-05-18T17:58:54.668Z,15.54
2023-05-18T18:01:21.460Z,15.48
2023-05-18T18:03:48.866Z,15.42
2023-05-18T18:06:22.166Z,15.41
2023-05-18T18:08:49.834Z,15.36
2023-05-18T18:11:21.282Z,15.42
2023-05-18T18:13:48.478Z,15.46
2023-05-18T18:16:16.040Z,15.41
2023-05-18T18:18:42.643Z,15.34
2023-05-18T18:21:09.193Z,15.35
2023-05-18T18:23:36.846Z,15.35
2023-05-18T18:26:06.981Z,15.29
2023-05-18T18:28:34.586Z,15.27
2023-05-18T18:31:02.229Z,15.25
2023-05-18T18:33:28.912Z,15.20
2023-05-18T18:35:56.920Z,15.19
2023-05-18T18:38:23.528Z,15.14
2023-05-18T18:40:50.507Z,15.12
2023-05-18T18:43:17.081Z,15.09
2023-05-18T18:45:53.995Z,15.03
2023-05-18T18:48:21.347Z,15.03
2023-05-18T18:50:49.291Z,15.00
2023-05-18T18:53:15.808Z,14.96
2023-05-18T18:55:44.030Z,14.92
2023-05-18T18:58:12.761Z,14.88
2023-05-18T19:00:42.077Z,14.84
2023-05-18T19:03:13.473Z,14.78
2023-05-18T19:05:42.351Z,14.74
2023-05-18T19:08:10.426Z,14.71
2023-05-18T19:10:43.149Z,14.70
2023-05-18T19:13:10.706Z,14.65
2023-05-18T19:15:38.450Z,14.58
2023-05-18T19:18:13.038Z,14.54
2023-05-18T19:20:49.864Z,14.46
2023-05-18T19:23:16.659Z,14.38
2023-05-18T19:25:43.552Z,14.31
2023-05-18T19:28:10.504Z,14.26
2023-05-18T19:30:37.340Z,14.25
2023-05-18T19:33:07.474Z,14.20
2023-05-18T19:35:34.876Z,14.16
2023-05-18T19:38:02.521Z,14.09
2023-05-18T19:40:29.739Z,14.04
2023-05-18T19:42:56.496Z,14.00
2023-05-18T19:45:23.051Z,13.95
2023-05-18T19:47:49.598Z,13.90
2023-05-18T19:50:16.163Z,13.84
2023-05-18T19:52:42.928Z,13.76
2023-05-18T19:55:09.629Z,13.70
2023-05-18T19:57:36.469Z,13.69
2023-05-18T20:00:05.713Z,13.63
2023-05-18T20:02:42.145Z,13.59
2023-05-18T20:05:12.565Z,13.55
2023-05-18T20:07:39.302Z,13.47
2023-05-18T20:10:06.188Z,13.38
2023-05-18T20:12:32.718Z,13.32
2023-05-18T20:14:59.740Z,13.23
2023-05-18T20:17:26.405Z,13.10
2023-05-18T20:19:54.090Z,13.01
2023-05-18T20:22:22.947Z,12.98
2023-05-18T20:24:51.965Z,12.97
2023-05-18T20:27:18.462Z,12.94
2023-05-18T20:29:46.044Z,12.88
2023-05-18T20:32:13.693Z,12.82
2023-05-18T20:34:41.312Z,12.75
2023-05-18T20:37:10.908Z,12.68
2023-05-18T20:39:39.745Z,12.64
2023-05-18T20:42:06.770Z,12.61
2023-05-18T20:44:34.956Z,12.58
2023-05-18T20:47:03.847Z,12.55
2023-05-18T20:49:30.569Z,12.50
2023-05-18T20:51:57.134Z,12.49
2023-05-18T20:54:23.669Z,12.47
2023-05-18T20:56:51.824Z,12.43
2023-05-18T20:59:19.072Z,12.37
2023-05-18T21:01:45.580Z,12.33
2023-05-18T21:04:17.198Z,12.30
2023-05-18T21:06:45.173Z,12.26
2023-05-18T21:09:11.899Z,12.24
2023-05-18T21:11:38.402Z,12.24
2023-05-18T21:14:04.913Z,12.19
2023-05-18T21:16:31.435Z,12.11
2023-05-18T21:18:58.067Z,12.06
2023-05-18T21:21:24.921Z,11.99
2023-05-18T21:23:51.874Z,11.92
2023-05-18T21:26:18.409Z,11.89
2023-05-18T21:28:45.403Z,11.85
2023-05-18T21:31:11.979Z,11.76
2023-05-18T21:33:38.919Z,11.71
2023-05-18T21:36:05.958Z,11.65
2023-05-18T21:38:33.089Z,11.62
2023-05-18T21:41:00.986Z,11.60
2023-05-18T21:43:27.489Z,11.55
2023-05-18T21:45:54.028Z,11.49
2023-05-18T21:48:20.614Z,11.45
2023-05-18T21:50:47.574Z,11.41
2023-05-18T21:53:14.086Z,11.35
2023-05-18T21:55:40.671Z,11.32
2023-05-18T21:58:07.185Z,11.29
2023-05-18T22:00:35.422Z,11.24
2023-05-18T22:03:02.219Z,11.21
2023-05-18T22:05:28.868Z,11.16
2023-05-18T22:07:55.600Z,11.10
2023-05-18T22:10:22.109Z,11.05
2023-05-18T22:12:48.622Z,11.01
2023-05-18T22:15:16.992Z,10.97
2023-05-18T22:17:45.910Z,10.92
2023-05-18T22:20:12.702Z,10.89
2023-05-18T22:22:40.256Z,10.88
2023-05-18T22:25:07.343Z,10.83
2023-05-18T22:27:36.362Z,10.81
2023-05-18T22:30:04.717Z,10.77
2023-05-18T22:32:31.302Z,10.72
2023-05-18T22:34:59.861Z,10.68
2023-05-18T22:37:26.654Z,10.63
2023-05-18T22:39:53.237Z,10.61
2023-05-18T22:42:19.823Z,10.55
2023-05-18T22:44:46.407Z,10.46
2023-05-18T22:47:13.505Z,10.40
2023-05-18T22:49:41.083Z,10.37
2023-05-18T22:52:08.130Z,10.35
2023-05-18T22:54:34.638Z,10.30
2023-05-18T22:57:01.557Z,10.25
2023-05-18T22:59:28.651Z,10.23
2023-05-18T23:01:55.358Z,10.19
2023-05-18T23:04:21.854Z,10.17
2023-05-18T23:06:49.653Z,10.14
2023-05-18T23:09:16.957Z,10.11
2023-05-18T23:11:44.619Z,10.07
2023-05-18T23:14:13.299Z,10.01
2023-05-18T23:16:42.651Z,9.96
2023-05-18T23:19:10.166Z,9.93
2023-05-18T23:21:36.827Z,9.91
2023-05-18T23:24:04.500Z,9.88
2023-05-18T23:26:31.057Z,9.81
2023-05-18T23:28:58.435Z,9.76
2023-05-18T23:31:24.997Z,9.71
2023-05-18T23:33:51.909Z,9.68
2023-05-18T23:36:20.737Z,9.65
2023-05-18T23:38:49.850Z,9.66
2023-05-18T23:41:17.072Z,9.65
2023-05-18T23:43:43.886Z,9.62
2023-05-18T23:46:10.904Z,9.57
2023-05-18T23:48:39.079Z,9.55
2023-05-18T23:51:08.179Z,9.50
2023-05-18T23:53:35.581Z,9.46
2023-05-18T23:56:02.652Z,9.45
2023-05-18T23:58:31.394Z,9.39
